Alcester, South Dakota
Current Conditions -  °F | °C
As of 7:35 PM on Wednesday 22 Oct 2014 (Local Time) from KLRJ Reporting Station
Light Rain Light Rain  
Wind Chill: 61°   Ceiling: NA
Heat Index: 61°   Visibility: 4mi
Dew Point: 59°   Wind: 5mph
Humidity: 94%   Direction: 160°SSE
Pressure: 30.02"   Gusts: NA
Location:  43.02°N, 96.63°W
Report Text: KLRJ 230035Z AUTO 16004KT 4SM -RA 16/15 A3002 RMK AO2
Loading
Personal Weather Stations






























Interactive Weather Map
Tropical Storm Tracking
New forecast layout! Learn more

10-Day Weather Forecast

Advertisements
Track Severe Weather on mobile